Time;durP1;ratioP1;P1;durP2;ratioP2;P2;SDS_P1;SDS_P2;PMS_P1;PMS_P2;Temp;Humidity;BMP_temperature;BMP_pressure;BME280_temperature;BME280_humidity;BME280_pressure;Samples;Min_cycle;Max_cycle;Signal;HPM_P1;HPM_P2
2022/04/15 00:01:20;;;;;;;;;;;13.90;99.90;;;;;;5126029;28;19908;-69
2022/04/15 00:03:46;;;;;;;;;;;13.80;99.90;;;;;;5126539;28;19915;-69
2022/04/15 00:06:12;;;;;;;;;;;13.80;99.90;;;;;;5108344;28;19929;-69
2022/04/15 00:08:37;;;;;;;;;;;13.80;99.90;;;;;;5126361;28;19908;-69
2022/04/15 00:11:03;;;;;;;;;;;13.70;99.90;;;;;;5125224;28;19923;-70
2022/04/15 00:13:33;;;;;;;;;;;13.80;99.90;;;;;;5126331;28;19914;-70
2022/04/15 00:15:59;;;;;;;;;;;13.70;99.90;;;;;;5124025;28;19912;-69
2022/04/15 00:18:25;;;;;;;;;;;13.70;99.90;;;;;;5126311;28;20040;-69
2022/04/15 00:20:54;;;;;;;;;;;13.60;99.90;;;;;;5124943;28;19907;-70
2022/04/15 00:23:23;;;;;;;;;;;13.60;99.90;;;;;;5126226;28;19908;-70
2022/04/15 00:25:49;;;;;;;;;;;13.60;99.90;;;;;;5108444;28;19914;-69
2022/04/15 00:28:15;;;;;;;;;;;13.70;99.90;;;;;;5126536;28;19915;-69
2022/04/15 00:30:41;;;;;;;;;;;13.70;99.90;;;;;;5125248;28;19911;-69
2022/04/15 00:33:06;;;;;;;;;;;13.60;99.90;;;;;;5125887;28;19951;-69
2022/04/15 00:35:32;;;;;;;;;;;13.70;99.90;;;;;;5107770;28;20015;-70
2022/04/15 00:37:58;;;;;;;;;;;13.60;99.90;;;;;;5125797;28;19915;-69
2022/04/15 00:40:23;;;;;;;;;;;13.60;99.90;;;;;;5107676;28;19979;-70
2022/04/15 00:42:49;;;;;;;;;;;13.50;99.90;;;;;;5125463;28;20111;-69
2022/04/15 00:45:15;;;;;;;;;;;13.50;99.90;;;;;;5125348;28;19908;-69
2022/04/15 00:47:50;;;;;;;;;;;13.40;99.90;;;;;;5125587;28;19916;-69
2022/04/15 00:50:16;;;;;;;;;;;13.40;99.90;;;;;;5107937;28;19930;-70
2022/04/15 00:52:44;;;;;;;;;;;13.40;99.90;;;;;;5125157;28;19918;-70
2022/04/15 00:55:10;;;;;;;;;;;13.40;99.90;;;;;;5107186;28;19978;-70
2022/04/15 00:57:37;;;;;;;;;;;13.40;99.90;;;;;;5125479;28;19908;-70
2022/04/15 01:00:04;;;;;;;;;;;13.30;99.90;;;;;;5107476;28;19942;-69
2022/04/15 01:02:30;;;;;;;;;;;13.20;99.90;;;;;;5090159;28;19912;-69
2022/04/15 01:04:56;;;;;;;;;;;13.20;99.90;;;;;;5090228;28;19953;-70
2022/04/15 01:07:26;;;;;;;;;;;13.30;99.90;;;;;;5125264;28;19989;-69
2022/04/15 01:09:52;;;;;;;;;;;13.20;99.90;;;;;;5090148;28;19914;-69
2022/04/15 01:12:18;;;;;;;;;;;13.10;99.90;;;;;;5124794;28;19916;-69
2022/04/15 01:14:44;;;;;;;;;;;13.10;99.90;;;;;;5105851;28;19916;-69
2022/04/15 01:17:09;;;;;;;;;;;13.00;99.90;;;;;;5106997;28;19943;-69
2022/04/15 01:19:35;;;;;;;;;;;13.00;99.90;;;;;;5106900;28;19907;-69
2022/04/15 01:22:04;;;;;;;;;;;12.90;99.90;;;;;;5124792;28;19908;-70
2022/04/15 01:24:29;;;;;;;;;;;12.90;99.90;;;;;;5106805;28;20199;-70
2022/04/15 01:26:55;;;;;;;;;;;12.90;99.90;;;;;;5124971;28;19908;-69
2022/04/15 01:29:21;;;;;;;;;;;12.90;99.90;;;;;;5106571;28;19915;-69
2022/04/15 01:31:46;;;;;;;;;;;12.90;99.90;;;;;;5124400;28;19915;-69
2022/04/15 01:34:12;;;;;;;;;;;12.90;99.90;;;;;;5124635;28;19911;-69
2022/04/15 01:36:38;;;;;;;;;;;12.90;99.90;;;;;;5112071;22;19921;-68
2022/04/15 01:39:03;;;;;;;;;;;12.90;99.90;;;;;;5081437;28;19950;-68
2022/04/15 01:41:29;;;;;;;;;;;12.90;99.90;;;;;;5082435;28;19931;-68
2022/04/15 01:43:55;;;;;;;;;;;12.90;99.90;;;;;;5082829;28;19909;-68
2022/04/15 01:46:20;;;;;;;;;;;12.90;99.90;;;;;;5082599;28;19908;-67
2022/04/15 01:48:46;;;;;;;;;;;12.90;99.90;;;;;;5082610;28;19915;-68
2022/04/15 01:51:12;;;;;;;;;;;12.80;99.90;;;;;;5081936;28;19919;-67
2022/04/15 01:53:37;;;;;;;;;;;12.80;99.90;;;;;;5082463;28;19919;-67
2022/04/15 01:56:05;;;;;;;;;;;12.80;99.90;;;;;;5082375;28;20085;-68
2022/04/15 01:58:33;;;;;;;;;;;12.80;99.90;;;;;;5082535;28;20243;-67
2022/04/15 02:00:59;;;;;;;;;;;12.90;99.90;;;;;;5047776;28;19908;-67
2022/04/15 02:03:25;;;;;;;;;;;12.80;99.90;;;;;;5082402;28;20207;-68
2022/04/15 02:05:50;;;;;;;;;;;12.90;99.90;;;;;;5081255;28;19915;-67
2022/04/15 02:08:16;;;;;;;;;;;12.90;99.90;;;;;;5082190;28;20199;-67
2022/04/15 02:10:42;;;;;;;;;;;12.80;99.90;;;;;;5081903;28;19913;-68
2022/04/15 02:13:07;;;;;;;;;;;12.80;99.90;;;;;;5082188;28;20030;-68
2022/04/15 02:15:33;;;;;;;;;;;12.80;99.90;;;;;;5082161;28;19916;-68
2022/04/15 02:17:59;;;;;;;;;;;12.70;99.90;;;;;;5082147;28;20211;-68
2022/04/15 02:20:24;;;;;;;;;;;12.60;99.90;;;;;;5081888;28;20008;-68
2022/04/15 02:22:52;;;;;;;;;;;12.70;99.90;;;;;;5082259;28;20172;-67
2022/04/15 02:25:18;;;;;;;;;;;12.70;99.90;;;;;;5064454;28;19909;-67
2022/04/15 02:27:44;;;;;;;;;;;12.60;99.90;;;;;;5082184;28;20225;-67
2022/04/15 02:30:10;;;;;;;;;;;12.60;99.90;;;;;;5063987;28;19928;-67
2022/04/15 02:32:35;;;;;;;;;;;12.60;99.90;;;;;;5064094;28;20000;-68
2022/04/15 02:35:01;;;;;;;;;;;12.50;99.90;;;;;;5081507;28;20073;-67
2022/04/15 02:37:27;;;;;;;;;;;12.40;99.90;;;;;;5082413;28;19909;-68
2022/04/15 02:39:55;;;;;;;;;;;12.50;99.90;;;;;;5081964;28;20199;-67
2022/04/15 02:42:20;;;;;;;;;;;12.40;99.90;;;;;;5081907;28;19916;-67
2022/04/15 02:44:46;;;;;;;;;;;12.40;99.90;;;;;;5064068;28;19979;-67
2022/04/15 02:47:12;;;;;;;;;;;12.30;99.90;;;;;;5081922;28;19908;-67
2022/04/15 02:49:38;;;;;;;;;;;12.30;99.90;;;;;;5063919;28;19979;-68
2022/04/15 02:52:04;;;;;;;;;;;12.30;99.90;;;;;;5081271;28;19923;-67
2022/04/15 02:54:29;;;;;;;;;;;12.20;99.90;;;;;;5081781;28;19908;-68
2022/04/15 02:56:55;;;;;;;;;;;12.20;99.90;;;;;;5081896;28;19924;-68
2022/04/15 02:59:21;;;;;;;;;;;12.30;99.90;;;;;;5081822;28;19908;-67
2022/04/15 03:01:48;;;;;;;;;;;12.20;99.90;;;;;;5081669;28;19936;-68
2022/04/15 03:04:13;;;;;;;;;;;12.20;99.90;;;;;;5082211;28;20152;-68
2022/04/15 03:06:39;;;;;;;;;;;12.30;99.90;;;;;;5081256;28;20077;-68
2022/04/15 03:09:05;;;;;;;;;;;12.20;99.90;;;;;;5081785;28;20112;-68
2022/04/15 03:11:32;;;;;;;;;;;12.20;99.90;;;;;;5081408;28;19912;-67
2022/04/15 03:13:58;;;;;;;;;;;12.10;99.90;;;;;;5082000;28;19912;-68
2022/04/15 03:16:23;;;;;;;;;;;12.20;99.90;;;;;;5082099;28;19989;-67
2022/04/15 03:18:49;;;;;;;;;;;12.20;99.90;;;;;;5085507;28;19908;-67
2022/04/15 03:21:14;;;;;;;;;;;12.10;99.90;;;;;;5084997;28;19912;-68
2022/04/15 03:23:42;;;;;;;;;;;12.10;99.90;;;;;;5085394;28;19908;-67
2022/04/15 03:26:07;;;;;;;;;;;12.20;99.90;;;;;;5085369;28;19909;-67
2022/04/15 03:28:33;;;;;;;;;;;12.10;99.90;;;;;;5085547;28;20214;-68
2022/04/15 03:30:59;;;;;;;;;;;12.00;99.90;;;;;;5084639;28;19966;-68
2022/04/15 03:33:24;;;;;;;;;;;11.90;99.90;;;;;;5085408;28;19909;-68
2022/04/15 03:35:50;;;;;;;;;;;11.80;99.90;;;;;;5085697;28;20266;-68
2022/04/15 03:38:16;;;;;;;;;;;11.80;99.90;;;;;;5086094;28;19909;-68
2022/04/15 03:40:41;;;;;;;;;;;11.80;99.90;;;;;;5086003;28;20164;-68
2022/04/15 03:43:07;;;;;;;;;;;11.80;99.90;;;;;;5086113;28;19943;-68
2022/04/15 03:45:33;;;;;;;;;;;11.90;99.90;;;;;;5085982;28;20294;-68
2022/04/15 03:47:58;;;;;;;;;;;11.90;99.90;;;;;;5086121;28;19971;-68
2022/04/15 03:50:24;;;;;;;;;;;11.70;99.90;;;;;;5085859;28;20146;-68
2022/04/15 03:52:50;;;;;;;;;;;11.70;99.90;;;;;;5085606;28;20039;-68
2022/04/15 03:55:17;;;;;;;;;;;11.80;99.90;;;;;;5085843;28;19915;-68
2022/04/15 03:57:43;;;;;;;;;;;11.70;99.90;;;;;;5068077;28;19912;-68
2022/04/15 04:00:12;;;;;;;;;;;11.70;99.90;;;;;;5085774;28;20263;-68
2022/04/15 04:02:38;;;;;;;;;;;11.70;99.90;;;;;;5085552;28;19909;-68
2022/04/15 04:05:04;;;;;;;;;;;11.70;99.90;;;;;;5085719;28;19992;-68
2022/04/15 04:07:30;;;;;;;;;;;11.70;99.90;;;;;;5085349;28;19908;-68
2022/04/15 04:09:56;;;;;;;;;;;11.70;99.90;;;;;;5085716;28;19909;-68
2022/04/15 04:12:22;;;;;;;;;;;11.60;99.90;;;;;;5085203;28;19918;-68
2022/04/15 04:14:47;;;;;;;;;;;11.60;99.90;;;;;;5085507;28;19946;-68
2022/04/15 04:17:13;;;;;;;;;;;11.60;99.90;;;;;;5085482;28;19909;-68
2022/04/15 04:19:39;;;;;;;;;;;11.60;99.90;;;;;;5067563;28;20103;-68
2022/04/15 04:22:04;;;;;;;;;;;11.60;99.90;;;;;;5084836;28;19912;-68
2022/04/15 04:24:31;;;;;;;;;;;11.50;99.90;;;;;;5085411;28;19916;-68
2022/04/15 04:26:56;;;;;;;;;;;11.60;99.90;;;;;;5085275;28;19932;-68
2022/04/15 04:29:22;;;;;;;;;;;11.60;99.90;;;;;;5083859;28;19908;-68
2022/04/15 04:31:48;;;;;;;;;;;11.60;99.90;;;;;;5084964;28;19997;-68
2022/04/15 04:34:13;;;;;;;;;;;11.70;99.90;;;;;;5085245;28;20195;-68
2022/04/15 04:36:39;;;;;;;;;;;11.70;99.90;;;;;;5084699;28;19916;-68
2022/04/15 04:39:07;;;;;;;;;;;11.70;99.90;;;;;;5085091;28;19916;-68
2022/04/15 04:41:33;;;;;;;;;;;11.70;99.90;;;;;;5084798;28;19923;-68
2022/04/15 04:43:58;;;;;;;;;;;11.70;99.90;;;;;;5085064;28;19975;-68
2022/04/15 04:46:24;;;;;;;;;;;11.80;99.90;;;;;;5050488;28;19908;-68
2022/04/15 04:48:50;;;;;;;;;;;11.80;99.90;;;;;;5084970;28;19908;-68
2022/04/15 04:51:15;;;;;;;;;;;11.80;99.90;;;;;;5084292;28;19912;-68
2022/04/15 04:53:41;;;;;;;;;;;11.70;99.90;;;;;;5084755;28;19908;-68
2022/04/15 04:56:06;;;;;;;;;;;11.80;99.90;;;;;;5066953;28;19909;-68
2022/04/15 04:58:32;;;;;;;;;;;11.80;99.90;;;;;;5066992;28;19909;-68
2022/04/15 05:00:58;;;;;;;;;;;11.70;99.90;;;;;;5084540;28;20204;-68
2022/04/15 05:03:23;;;;;;;;;;;11.80;99.90;;;;;;5084713;28;19908;-68
2022/04/15 05:05:49;;;;;;;;;;;11.70;99.90;;;;;;5084160;28;19969;-68
2022/04/15 05:08:15;;;;;;;;;;;11.70;99.90;;;;;;5084624;28;19915;-68
2022/04/15 05:10:40;;;;;;;;;;;11.60;99.90;;;;;;5084143;28;19944;-68
2022/04/15 05:13:06;;;;;;;;;;;11.60;99.90;;;;;;5084530;28;19915;-68
2022/04/15 05:15:32;;;;;;;;;;;11.60;99.90;;;;;;5083490;28;20250;-68
2022/04/15 05:17:57;;;;;;;;;;;11.60;99.90;;;;;;5084377;28;19908;-68
2022/04/15 05:20:23;;;;;;;;;;;11.60;99.90;;;;;;5083972;28;19913;-68
2022/04/15 05:22:49;;;;;;;;;;;11.50;99.90;;;;;;5083961;28;19908;-68
2022/04/15 05:25:14;;;;;;;;;;;11.60;99.90;;;;;;5084073;28;19909;-68
2022/04/15 05:27:40;;;;;;;;;;;11.60;99.90;;;;;;5084366;28;19978;-68
2022/04/15 05:30:07;;;;;;;;;;;11.60;99.90;;;;;;5083709;28;19908;-68
2022/04/15 05:32:32;;;;;;;;;;;11.60;99.90;;;;;;5083835;28;19934;-68
2022/04/15 05:34:58;;;;;;;;;;;11.60;99.90;;;;;;5083861;28;20201;-68
2022/04/15 05:37:23;;;;;;;;;;;11.70;99.90;;;;;;5083698;28;19953;-67
2022/04/15 05:39:49;;;;;;;;;;;11.70;99.90;;;;;;5084011;28;19971;-67
2022/04/15 05:42:15;;;;;;;;;;;11.60;99.90;;;;;;5083615;28;19908;-67
2022/04/15 05:44:41;;;;;;;;;;;11.60;99.90;;;;;;5083761;28;19969;-68
2022/04/15 05:47:07;;;;;;;;;;;11.50;99.90;;;;;;5065942;28;19936;-68
2022/04/15 05:49:34;;;;;;;;;;;11.50;99.90;;;;;;5083544;28;20119;-67
2022/04/15 05:52:01;;;;;;;;;;;11.50;99.90;;;;;;5083274;28;19919;-67
2022/04/15 05:54:27;;;;;;;;;;;11.50;99.90;;;;;;5083819;28;19908;-67
2022/04/15 05:56:52;;;;;;;;;;;11.50;99.90;;;;;;5083625;28;19909;-67
2022/04/15 05:59:21;;;;;;;;;;;11.50;99.90;;;;;;5083615;28;19909;-67
2022/04/15 06:01:48;;;;;;;;;;;11.50;99.90;;;;;;5066140;28;19916;-69
2022/04/15 06:04:14;;;;;;;;;;;11.60;99.90;;;;;;5031959;28;19909;-66
2022/04/15 06:06:39;;;;;;;;;;;11.70;99.90;;;;;;5043021;28;19916;-67
2022/04/15 06:09:05;;;;;;;;;;;11.80;99.90;;;;;;5043313;28;20060;-67
2022/04/15 06:11:31;;;;;;;;;;;11.80;99.90;;;;;;5042995;28;19917;-67
2022/04/15 06:13:57;;;;;;;;;;;11.90;99.90;;;;;;5043043;28;19909;-68
2022/04/15 06:16:26;;;;;;;;;;;11.80;99.90;;;;;;5061683;28;19909;-69
2022/04/15 06:18:51;;;;;;;;;;;11.90;99.90;;;;;;5083111;28;20230;-66
2022/04/15 06:21:17;;;;;;;;;;;12.00;99.90;;;;;;5082687;28;19909;-65
2022/04/15 06:23:42;;;;;;;;;;;12.00;99.90;;;;;;5082915;28;19939;-65
2022/04/15 06:26:08;;;;;;;;;;;12.10;99.90;;;;;;5082814;28;19955;-65
2022/04/15 06:28:34;;;;;;;;;;;12.10;99.90;;;;;;5083151;28;19915;-66
2022/04/15 06:30:59;;;;;;;;;;;12.10;99.90;;;;;;5077790;28;20200;-67
2022/04/15 06:33:25;;;;;;;;;;;12.10;99.90;;;;;;5048360;28;19909;-68
2022/04/15 06:35:51;;;;;;;;;;;12.20;99.90;;;;;;5062434;28;20246;-67
2022/04/15 06:38:18;;;;;;;;;;;12.20;99.90;;;;;;5062479;28;20107;-67
2022/04/15 06:40:44;;;;;;;;;;;12.20;99.90;;;;;;5062307;28;19971;-71
2022/04/15 06:43:10;;;;;;;;;;;12.30;99.90;;;;;;5062221;28;19931;-71
2022/04/15 06:45:35;;;;;;;;;;;12.40;99.90;;;;;;5065022;28;19908;-70
2022/04/15 06:48:01;;;;;;;;;;;12.40;99.90;;;;;;5082138;28;19975;-67
2022/04/15 06:50:27;;;;;;;;;;;12.40;99.90;;;;;;5081945;28;20022;-66
2022/04/15 06:52:52;;;;;;;;;;;12.40;99.90;;;;;;5087473;28;19919;-66
2022/04/15 06:55:18;;;;;;;;;;;12.40;99.90;;;;;;5088672;28;19908;-67
2022/04/15 06:57:44;;;;;;;;;;;12.40;99.90;;;;;;5088603;28;20207;-67
2022/04/15 07:00:11;;;;;;;;;;;12.60;99.90;;;;;;5088594;28;19940;-66
2022/04/15 07:02:37;;;;;;;;;;;12.60;99.90;;;;;;5041858;28;19917;-67
2022/04/15 07:05:05;;;;;;;;;;;12.70;99.90;;;;;;5058319;28;19989;-67
2022/04/15 07:07:31;;;;;;;;;;;12.80;99.90;;;;;;5068852;28;20207;-66
2022/04/15 07:09:57;;;;;;;;;;;12.90;99.90;;;;;;5069307;28;19954;-67
2022/04/15 07:12:22;;;;;;;;;;;12.80;99.90;;;;;;5069030;28;20054;-67
2022/04/15 07:14:48;;;;;;;;;;;12.90;99.90;;;;;;5068828;28;19916;-71
2022/04/15 07:17:14;;;;;;;;;;;12.80;99.90;;;;;;5033593;28;19928;-70
2022/04/15 07:19:39;;;;;;;;;;;12.90;99.90;;;;;;5069240;28;20150;-70
2022/04/15 07:22:05;;;;;;;;;;;12.80;99.90;;;;;;5068627;28;19915;-69
2022/04/15 07:24:34;;;;;;;;;;;12.80;99.90;;;;;;5069089;28;19996;-69
2022/04/15 07:27:00;;;;;;;;;;;12.90;99.90;;;;;;5068701;28;19916;-68
2022/04/15 07:29:26;;;;;;;;;;;12.90;99.90;;;;;;5069255;28;19912;-68
2022/04/15 07:31:52;;;;;;;;;;;12.90;99.80;;;;;;5068728;28;20203;-68
2022/04/15 07:34:18;;;;;;;;;;;13.20;99.80;;;;;;5051364;28;19909;-68
2022/04/15 07:39:14;;;;;;;;;;;13.40;99.80;;;;;;5115319;28;19920;-66
2022/04/15 07:41:40;;;;;;;;;;;13.50;99.50;;;;;;5128377;28;19934;-66
2022/04/15 07:44:07;;;;;;;;;;;13.70;99.00;;;;;;5128594;28;19912;-72
2022/04/15 07:46:33;;;;;;;;;;;13.80;98.60;;;;;;5083878;28;19933;-66
2022/04/15 07:48:59;;;;;;;;;;;13.90;98.60;;;;;;5107418;28;20129;-66
2022/04/15 07:51:24;;;;;;;;;;;14.10;98.60;;;;;;5089493;28;19951;-66
2022/04/15 07:53:50;;;;;;;;;;;14.10;98.10;;;;;;5107839;28;19916;-66
2022/04/15 07:56:16;;;;;;;;;;;14.20;98.00;;;;;;5108096;28;20123;-66
2022/04/15 07:58:41;;;;;;;;;;;14.00;98.30;;;;;;5107899;28;19916;-66
2022/04/15 08:01:09;;;;;;;;;;;14.20;98.00;;;;;;5107648;28;19970;-65
2022/04/15 08:03:34;;;;;;;;;;;14.10;98.10;;;;;;5104615;28;19908;-64
2022/04/15 08:06:00;;;;;;;;;;;14.30;97.60;;;;;;5104567;28;20033;-65
2022/04/15 08:08:26;;;;;;;;;;;14.30;97.60;;;;;;5090120;28;19908;-72
2022/04/15 08:10:51;;;;;;;;;;;14.50;97.40;;;;;;5066001;28;19940;-66
2022/04/15 08:13:18;;;;;;;;;;;14.60;97.30;;;;;;5084404;28;19915;-72
2022/04/15 08:15:43;;;;;;;;;;;14.80;96.60;;;;;;5082847;28;20031;-66
2022/04/15 08:18:09;;;;;;;;;;;14.70;95.70;;;;;;5083698;28;20045;-65
2022/04/15 08:20:35;;;;;;;;;;;14.80;95.90;;;;;;5084007;28;19908;-66
2022/04/15 08:23:00;;;;;;;;;;;14.80;95.90;;;;;;5083768;28;19908;-66
2022/04/15 08:25:26;;;;;;;;;;;14.70;95.70;;;;;;5084108;28;19971;-66
2022/04/15 08:27:52;;;;;;;;;;;14.90;95.60;;;;;;5083894;28;20265;-65
2022/04/15 08:30:17;;;;;;;;;;;15.10;95.80;;;;;;5083747;28;19915;-65
2022/04/15 08:32:44;;;;;;;;;;;15.50;95.40;;;;;;5083088;28;20010;-65
2022/04/15 08:35:13;;;;;;;;;;;15.30;94.70;;;;;;5065625;28;19922;-65
2022/04/15 08:37:38;;;;;;;;;;;15.40;94.50;;;;;;5083379;28;19983;-65
2022/04/15 08:40:05;;;;;;;;;;;15.20;94.00;;;;;;5083748;28;19909;-66
2022/04/15 08:42:30;;;;;;;;;;;14.90;94.60;;;;;;5083437;28;19908;-65
2022/04/15 08:44:56;;;;;;;;;;;14.90;94.90;;;;;;5083739;28;19972;-66
2022/04/15 08:47:22;;;;;;;;;;;14.90;95.10;;;;;;5083596;28;19909;-66
2022/04/15 08:49:47;;;;;;;;;;;15.20;94.70;;;;;;5083090;28;19908;-66
2022/04/15 08:52:17;;;;;;;;;;;15.10;95.10;;;;;;5083047;28;20586;-66
2022/04/15 08:54:43;;;;;;;;;;;15.20;95.30;;;;;;5083321;28;19936;-65
2022/04/15 08:57:09;;;;;;;;;;;15.50;94.60;;;;;;5083246;28;19908;-65
2022/04/15 08:59:35;;;;;;;;;;;15.60;94.30;;;;;;5082126;28;19932;-66
2022/04/15 09:02:00;;;;;;;;;;;15.80;93.60;;;;;;5083059;28;20199;-66
2022/04/15 09:04:26;;;;;;;;;;;15.60;93.20;;;;;;5083273;28;19908;-66
2022/04/15 09:06:55;;;;;;;;;;;15.60;93.10;;;;;;5082924;28;19936;-65
2022/04/15 09:09:24;;;;;;;;;;;15.60;92.50;;;;;;5082820;28;19915;-65
2022/04/15 09:11:50;;;;;;;;;;;15.40;92.30;;;;;;5065437;28;19920;-66
2022/04/15 09:14:15;;;;;;;;;;;15.30;93.00;;;;;;5081630;28;20199;-65
2022/04/15 09:16:43;;;;;;;;;;;15.50;93.30;;;;;;5064467;28;20065;-65
2022/04/15 09:19:09;;;;;;;;;;;15.70;93.50;;;;;;5082836;28;19920;-65
2022/04/15 09:21:35;;;;;;;;;;;15.80;92.80;;;;;;5082791;28;19939;-65
2022/04/15 09:24:01;;;;;;;;;;;15.80;92.70;;;;;;5082619;28;20106;-65
2022/04/15 09:26:27;;;;;;;;;;;16.00;92.30;;;;;;5083004;28;19935;-65
2022/04/15 09:28:56;;;;;;;;;;;16.10;91.40;;;;;;5082681;28;20111;-71
2022/04/15 09:31:23;;;;;;;;;;;16.20;91.30;;;;;;5081025;28;20114;-71
2022/04/15 09:33:56;;;;;;;;;;;16.40;90.50;;;;;;5081602;28;19956;-71
2022/04/15 09:36:23;;;;;;;;;;;16.30;90.90;;;;;;5083622;28;19908;-71
2022/04/15 09:38:50;;;;;;;;;;;16.40;91.10;;;;;;5083235;28;19919;-71
2022/04/15 09:41:24;;;;;;;;;;;16.50;90.10;;;;;;5083433;28;20106;-65
2022/04/15 09:43:53;;;;;;;;;;;16.70;90.70;;;;;;5083345;28;19990;-65
2022/04/15 09:46:19;;;;;;;;;;;17.00;90.60;;;;;;5083488;28;20200;-65
2022/04/15 09:49:03;;;;;;;;;;;17.00;88.40;;;;;;5065650;28;19958;-65
2022/04/15 09:51:40;;;;;;;;;;;17.10;89.40;;;;;;5083144;28;19916;-65
2022/04/15 09:54:07;;;;;;;;;;;17.10;88.30;;;;;;5083310;28;19969;-65
2022/04/15 09:56:36;;;;;;;;;;;16.90;86.00;;;;;;5082951;28;19947;-65
2022/04/15 09:59:05;;;;;;;;;;;17.00;86.10;;;;;;5083296;28;19909;-65
2022/04/15 10:01:32;;;;;;;;;;;17.20;83.90;;;;;;5083082;28;19914;-65
2022/04/15 10:03:58;;;;;;;;;;;17.30;84.00;;;;;;5083393;28;19908;-65
2022/04/15 10:06:24;;;;;;;;;;;17.30;80.70;;;;;;5082190;28;19988;-65
2022/04/15 10:08:50;;;;;;;;;;;17.30;80.50;;;;;;5064943;28;19919;-65
2022/04/15 10:11:15;;;;;;;;;;;17.50;80.20;;;;;;5082883;28;19916;-66
2022/04/15 10:13:44;;;;;;;;;;;17.60;78.80;;;;;;5065511;28;19909;-65
2022/04/15 10:16:10;;;;;;;;;;;17.80;78.80;;;;;;5082864;28;19915;-65
2022/04/15 10:18:35;;;;;;;;;;;18.00;77.10;;;;;;5062808;28;19912;-65
2022/04/15 10:21:03;;;;;;;;;;;18.00;74.50;;;;;;5044787;28;19916;-66
2022/04/15 10:23:29;;;;;;;;;;;18.10;75.80;;;;;;5062781;28;19909;-65
2022/04/15 10:25:55;;;;;;;;;;;18.30;75.80;;;;;;5062518;28;19936;-66
2022/04/15 10:28:37;;;;;;;;;;;18.20;74.40;;;;;;5045375;28;19909;-66
2022/04/15 10:31:11;;;;;;;;;;;18.60;74.70;;;;;;5061861;28;19909;-65
2022/04/15 10:33:39;;;;;;;;;;;18.80;74.30;;;;;;5062749;28;19909;-66
2022/04/15 10:36:13;;;;;;;;;;;18.80;73.70;;;;;;5062935;28;19932;-66
2022/04/15 10:39:06;;;;;;;;;;;18.70;73.10;;;;;;5062424;28;19999;-65
2022/04/15 10:41:41;;;;;;;;;;;18.80;74.10;;;;;;5058986;28;19954;-65
2022/04/15 10:44:10;;;;;;;;;;;18.90;72.80;;;;;;5062588;28;19917;-66
2022/04/15 10:46:36;;;;;;;;;;;19.30;75.10;;;;;;5066218;28;19914;-66
2022/04/15 10:49:02;;;;;;;;;;;19.60;72.00;;;;;;5082724;28;19908;-65
2022/04/15 10:51:30;;;;;;;;;;;19.50;67.20;;;;;;5064687;28;19936;-65
2022/04/15 10:54:11;;;;;;;;;;;19.10;65.80;;;;;;5082567;28;19909;-66
2022/04/15 10:57:01;;;;;;;;;;;19.20;66.40;;;;;;5064611;28;19908;-66
2022/04/15 11:02:18;;;;;;;;;;;19.50;65.00;;;;;;5082617;28;20241;-66
2022/04/15 11:04:47;;;;;;;;;;;19.70;62.40;;;;;;5082876;28;19971;-65
2022/04/15 11:07:14;;;;;;;;;;;19.60;59.80;;;;;;5081723;28;19909;-66
2022/04/15 11:09:40;;;;;;;;;;;19.90;59.20;;;;;;5082549;28;20021;-66
2022/04/15 11:12:06;;;;;;;;;;;19.90;56.60;;;;;;5082457;28;20227;-66
2022/04/15 11:14:34;;;;;;;;;;;19.70;57.00;;;;;;5082716;28;19993;-66
2022/04/15 11:17:00;;;;;;;;;;;19.60;58.60;;;;;;5082589;28;19913;-66
2022/04/15 11:19:26;;;;;;;;;;;20.00;57.80;;;;;;5082675;28;20203;-65
2022/04/15 11:21:53;;;;;;;;;;;19.90;55.90;;;;;;5081986;28;19950;-66
2022/04/15 11:24:27;;;;;;;;;;;19.60;56.30;;;;;;5082148;28;19908;-66
2022/04/15 11:27:01;;;;;;;;;;;19.60;56.10;;;;;;5082456;28;19909;-66
2022/04/15 11:29:31;;;;;;;;;;;20.10;52.70;;;;;;5082935;28;19979;-65
2022/04/15 11:32:04;;;;;;;;;;;20.00;49.00;;;;;;5082256;28;19912;-65
2022/04/15 11:34:29;;;;;;;;;;;19.90;47.30;;;;;;5082276;28;19997;-66
2022/04/15 11:36:56;;;;;;;;;;;20.00;46.60;;;;;;5082179;28;19908;-65
2022/04/15 11:39:23;;;;;;;;;;;20.10;46.70;;;;;;5068341;28;20200;-66
2022/04/15 11:41:51;;;;;;;;;;;20.30;46.50;;;;;;5085800;28;19915;-65
2022/04/15 11:44:17;;;;;;;;;;;20.60;44.30;;;;;;5086220;28;20081;-66
2022/04/15 11:46:43;;;;;;;;;;;20.90;45.10;;;;;;5085687;28;19954;-66
2022/04/15 11:49:19;;;;;;;;;;;21.20;43.70;;;;;;5085850;28;20119;-65
2022/04/15 11:51:47;;;;;;;;;;;21.20;43.30;;;;;;5085526;28;19916;-65
2022/04/15 11:54:13;;;;;;;;;;;21.40;43.10;;;;;;5085760;28;19916;-66
2022/04/15 11:56:39;;;;;;;;;;;21.70;44.20;;;;;;5085844;28;20177;-66
2022/04/15 11:59:05;;;;;;;;;;;21.90;43.40;;;;;;5085546;28;19940;-65
2022/04/15 12:01:31;;;;;;;;;;;22.10;41.90;;;;;;5085519;28;20218;-66
2022/04/15 12:04:00;;;;;;;;;;;22.60;42.90;;;;;;5085746;28;19940;-66
2022/04/15 12:06:31;;;;;;;;;;;23.20;39.30;;;;;;5085714;28;19908;-66
2022/04/15 12:08:57;;;;;;;;;;;24.00;40.60;;;;;;5085502;28;19908;-66
2022/04/15 12:11:25;;;;;;;;;;;24.40;39.60;;;;;;5084903;28;19980;-66
2022/04/15 12:13:58;;;;;;;;;;;24.40;37.40;;;;;;5085464;28;19915;-66
2022/04/15 12:16:24;;;;;;;;;;;24.30;38.60;;;;;;5084994;28;20153;-66
2022/04/15 12:18:52;;;;;;;;;;;25.40;37.60;;;;;;5085232;28;20103;-66
2022/04/15 12:21:17;;;;;;;;;;;26.40;37.20;;;;;;5085084;28;19943;-66
2022/04/15 12:23:59;;;;;;;;;;;27.00;35.80;;;;;;5084891;28;20326;-67
2022/04/15 12:26:24;;;;;;;;;;;26.30;34.80;;;;;;5085214;28;19916;-66
2022/04/15 12:31:34;;;;;;;;;;;27.20;33.90;;;;;;5084908;28;19919;-66
2022/04/15 12:34:01;;;;;;;;;;;28.70;33.10;;;;;;5085214;28;19908;-67
2022/04/15 12:36:42;;;;;;;;;;;30.00;32.10;;;;;;5085045;28;19908;-66
2022/04/15 12:39:08;;;;;;;;;;;31.60;30.10;;;;;;5084691;28;20010;-67
2022/04/15 12:41:47;;;;;;;;;;;32.70;29.40;;;;;;5085017;28;19909;-67
2022/04/15 12:44:16;;;;;;;;;;;33.20;29.10;;;;;;5085007;28;19909;-67
2022/04/15 12:46:44;;;;;;;;;;;33.80;29.20;;;;;;5083730;28;19912;-67
2022/04/15 12:49:29;;;;;;;;;;;33.30;29.80;;;;;;5083905;28;19945;-65
2022/04/15 12:52:19;;;;;;;;;;;34.20;29.80;;;;;;5084518;28;19913;-65
2022/04/15 12:55:02;;;;;;;;;;;36.10;29.20;;;;;;5083652;28;19915;-64
2022/04/15 12:57:40;;;;;;;;;;;35.20;28.00;;;;;;5084660;28;19915;-65
2022/04/15 13:00:10;;;;;;;;;;;37.10;28.00;;;;;;5084664;28;19972;-65
2022/04/15 13:02:36;;;;;;;;;;;38.30;27.20;;;;;;5084368;28;19909;-66
2022/04/15 13:05:05;;;;;;;;;;;37.50;27.00;;;;;;5084601;28;19909;-65
2022/04/15 13:07:30;;;;;;;;;;;35.70;28.00;;;;;;5084406;28;19946;-65
2022/04/15 13:09:56;;;;;;;;;;;35.60;27.80;;;;;;5084101;28;19908;-65
2022/04/15 13:12:22;;;;;;;;;;;36.40;28.10;;;;;;5083784;28;20160;-66
2022/04/15 13:14:49;;;;;;;;;;;37.70;27.60;;;;;;5084369;28;19908;-66
2022/04/15 13:17:15;;;;;;;;;;;38.00;26.70;;;;;;5083604;28;19997;-65
2022/04/15 13:19:43;;;;;;;;;;;38.00;25.80;;;;;;5084236;28;19938;-66
2022/04/15 13:22:09;;;;;;;;;;;38.80;25.70;;;;;;5083860;28;20051;-65
2022/04/15 13:24:35;;;;;;;;;;;38.60;25.40;;;;;;5082565;28;20492;-65
2022/04/15 13:27:01;;;;;;;;;;;39.50;25.00;;;;;;5084014;28;19988;-65
2022/04/15 13:29:27;;;;;;;;;;;38.00;24.90;;;;;;5084075;28;19908;-72
2022/04/15 13:31:53;;;;;;;;;;;37.10;25.40;;;;;;5083743;28;19912;-65
2022/04/15 13:34:21;;;;;;;;;;;36.80;26.20;;;;;;5083964;28;19909;-65
2022/04/15 13:36:47;;;;;;;;;;;36.80;25.90;;;;;;5083607;28;20131;-65
2022/04/15 13:39:13;;;;;;;;;;;36.80;26.00;;;;;;5083879;28;19912;-65
2022/04/15 13:41:39;;;;;;;;;;;37.80;26.20;;;;;;5083245;28;19950;-65
2022/04/15 13:44:04;;;;;;;;;;;37.10;25.40;;;;;;5083780;28;20114;-65
2022/04/15 13:46:30;;;;;;;;;;;36.50;26.30;;;;;;5083621;28;19971;-65
2022/04/15 13:48:56;;;;;;;;;;;36.50;25.80;;;;;;5083325;28;19916;-65
2022/04/15 13:51:22;;;;;;;;;;;36.70;25.60;;;;;;5078378;28;20278;-65
2022/04/15 13:56:37;;;;;;;;;;;36.80;26.10;;;;;;5074425;28;19976;-65
2022/04/15 13:59:03;;;;;;;;;;;36.60;26.00;;;;;;5073104;28;20257;-66
2022/04/15 14:01:32;;;;;;;;;;;35.40;25.90;;;;;;5044777;28;19912;-65
2022/04/15 14:04:00;;;;;;;;;;;34.30;26.00;;;;;;5066340;28;19992;-65
2022/04/15 14:06:26;;;;;;;;;;;33.60;26.40;;;;;;5074749;28;19909;-66
2022/04/15 14:08:52;;;;;;;;;;;34.20;26.50;;;;;;5082978;28;19915;-65
2022/04/15 14:11:18;;;;;;;;;;;33.90;26.30;;;;;;5082055;28;20120;-66
2022/04/15 14:13:44;;;;;;;;;;;32.90;27.30;;;;;;5083153;28;20171;-66
2022/04/15 14:16:10;;;;;;;;;;;31.90;27.20;;;;;;5082213;28;19909;-66
2022/04/15 14:18:37;;;;;;;;;;;32.00;27.00;;;;;;5083160;28;19915;-65
2022/04/15 14:21:03;;;;;;;;;;;34.20;26.70;;;;;;5082826;28;19975;-67
2022/04/15 14:23:28;;;;;;;;;;;34.60;27.00;;;;;;5082028;28;19915;-67
2022/04/15 14:25:54;;;;;;;;;;;34.90;26.30;;;;;;5082958;28;19920;-67